Time;durP1;ratioP1;P1;durP2;ratioP2;P2;SDS_P1;SDS_P2;PMS_P1;PMS_P2;Temp;Humidity;BMP_temperature;BMP_pressure;BME280_temperature;BME280_humidity;BME280_pressure;Samples;Min_cycle;Max_cycle;Signal;HPM_P1;HPM_P2
2023/05/03 00:02:27;;;;;;;27.70;25.20;;;;;;;10.42;99.64;98520.96;106721;1277;23885;-77
2023/05/03 00:04:56;;;;;;;28.70;26.20;;;;;;;10.35;99.04;98519.35;106858;1277;25299;-77
2023/05/03 00:07:24;;;;;;;31.30;28.30;;;;;;;10.32;98.45;98516.48;106796;1277;22711;-75
2023/05/03 00:09:52;;;;;;;39.10;35.40;;;;;;;10.35;97.81;98515.73;106537;1277;22528;-77
2023/05/03 00:12:20;;;;;;;52.80;48.00;;;;;;;10.36;97.67;98516.34;106652;1277;22622;-77
2023/05/03 00:14:48;;;;;;;45.00;41.00;;;;;;;10.36;97.40;98516.21;106682;1277;22947;-77
2023/05/03 00:17:16;;;;;;;41.30;37.60;;;;;;;10.38;97.64;98517.38;106650;1277;22653;-77
2023/05/03 00:19:44;;;;;;;41.30;37.30;;;;;;;10.38;97.54;98514.91;106539;1277;22578;-77
2023/05/03 00:22:13;;;;;;;38.30;34.90;;;;;;;10.41;97.42;98510.88;106520;1277;22524;-77
2023/05/03 00:24:41;;;;;;;38.90;35.40;;;;;;;10.38;97.46;98513.62;106534;1277;22580;-77
2023/05/03 00:27:09;;;;;;;34.30;31.40;;;;;;;10.38;97.29;98509.63;106729;1277;22563;-76
2023/05/03 00:29:37;;;;;;;40.80;37.40;;;;;;;10.40;97.06;98507.17;106406;1277;24081;-76
2023/05/03 00:32:05;;;;;;;40.60;37.10;;;;;;;10.44;97.11;98510.75;106418;1275;25923;-76
2023/05/03 00:34:32;;;;;;;35.30;32.10;;;;;;;10.48;96.63;98508.64;106492;1277;22536;-76
2023/05/03 00:37:00;;;;;;;36.20;32.90;;;;;;;10.48;96.54;98511.22;106548;1277;22634;-76
2023/05/03 00:39:32;;;;;;;36.30;33.20;;;;;;;10.46;96.49;98510.90;106409;1277;25619;-76
2023/05/03 00:42:02;;;;;;;33.30;30.10;;;;;;;10.46;96.87;98511.13;106447;1277;24190;-76
2023/05/03 00:44:31;;;;;;;31.30;28.30;;;;;;;10.50;96.74;98513.25;106563;1277;22534;-75
2023/05/03 00:47:00;;;;;;;33.30;30.10;;;;;;;10.50;96.48;98508.40;106406;1277;22532;-75
2023/05/03 00:49:28;;;;;;;26.60;24.00;;;;;;;10.53;96.80;98514.19;106665;1277;22640;-77
2023/05/03 00:51:58;;;;;;;24.50;22.20;;;;;;;10.48;97.14;98509.39;106788;1277;25218;-75
2023/05/03 00:54:27;;;;;;;25.10;22.70;;;;;;;10.45;96.97;98509.95;106665;1277;22531;-76
2023/05/03 00:56:56;;;;;;;25.20;22.80;;;;;;;10.42;97.48;98512.44;106751;1277;24242;-76
2023/05/03 00:59:25;;;;;;;24.40;22.00;;;;;;;10.37;97.50;98518.70;106713;1277;24195;-76
2023/05/03 01:01:53;;;;;;;25.20;22.70;;;;;;;10.29;98.52;98513.84;106661;1277;22489;-76
2023/05/03 01:04:22;;;;;;;25.80;23.20;;;;;;;10.23;98.24;98515.96;106442;1277;25312;-76
2023/05/03 01:07:09;;;;;;;25.80;23.40;;;;;;;10.20;98.13;98515.77;106678;1277;22609;-76
2023/05/03 01:09:59;;;;;;;30.60;27.50;;;;;;;10.23;97.63;98514.08;106544;1277;23181;-77
2023/05/03 01:12:33;;;;;;;26.30;23.60;;;;;;;10.28;97.53;98516.80;106752;1277;25425;-76
2023/05/03 01:15:29;;;;;;;27.10;24.50;;;;;;;10.32;97.29;98522.98;106632;1277;22631;-76
2023/05/03 01:18:06;;;;;;;26.20;23.90;;;;;;;10.33;97.13;98521.20;106530;1277;22637;-76
2023/05/03 01:20:36;;;;;;;26.30;23.70;;;;;;;10.33;97.31;98521.25;106583;1277;22629;-75
2023/05/03 01:23:13;;;;;;;25.70;23.20;;;;;;;10.37;97.20;98520.67;106530;1277;25323;-75
2023/05/03 01:25:41;;;;;;;26.00;23.40;;;;;;;10.42;97.38;98519.89;106544;1277;25457;-75
2023/05/03 01:28:09;;;;;;;27.50;24.90;;;;;;;10.46;97.13;98522.33;106511;1277;22532;-75
2023/05/03 01:30:39;;;;;;;30.10;27.40;;;;;;;10.50;97.17;98520.75;106520;1277;24232;-75
2023/05/03 01:33:35;;;;;;;28.40;25.50;;;;;;;10.54;97.13;98520.05;106498;1277;24187;-75
2023/05/03 01:36:28;;;;;;;26.30;23.90;;;;;;;10.51;96.91;98519.01;106568;1277;22655;-75
2023/05/03 01:39:03;;;;;;;26.90;24.50;;;;;;;10.44;97.03;98515.73;106738;1277;25319;-77
2023/05/03 01:41:32;;;;;;;26.40;24.10;;;;;;;10.43;96.96;98517.83;106501;1277;24446;-76
2023/05/03 01:44:03;;;;;;;27.00;24.50;;;;;;;10.44;97.17;98517.61;106588;1277;22542;-76
2023/05/03 01:46:31;;;;;;;27.00;24.30;;;;;;;10.48;97.01;98520.05;106867;1277;25469;-75
2023/05/03 01:48:59;;;;;;;26.10;23.70;;;;;;;10.49;97.07;98521.02;106714;1277;23889;-75
2023/05/03 01:51:29;;;;;;;26.90;24.20;;;;;;;10.49;96.99;98521.23;106823;1277;24284;-75
2023/05/03 01:53:57;;;;;;;27.80;25.30;;;;;;;10.46;96.84;98521.96;106593;1277;25469;-76
2023/05/03 01:56:25;;;;;;;27.50;24.90;;;;;;;10.41;97.40;98524.74;106684;1277;23284;-76
2023/05/03 01:58:53;;;;;;;27.60;25.00;;;;;;;10.33;97.29;98519.10;106500;1277;25917;-76
2023/05/03 02:01:21;;;;;;;27.70;25.10;;;;;;;10.36;97.38;98521.50;106764;1259;23221;-78
2023/05/03 02:03:49;;;;;;;26.60;24.10;;;;;;;10.38;96.90;98521.27;106705;1277;24228;-77
2023/05/03 02:06:17;;;;;;;28.10;25.30;;;;;;;10.41;97.26;98521.88;106640;1277;22613;-77
2023/05/03 02:08:45;;;;;;;26.70;24.20;;;;;;;10.42;97.26;98522.20;106451;1277;22617;-77
2023/05/03 02:11:14;;;;;;;28.10;25.40;;;;;;;10.39;97.42;98520.45;106533;1277;22572;-76
2023/05/03 02:13:42;;;;;;;27.30;24.70;;;;;;;10.36;97.41;98521.92;106578;1277;22733;-76
2023/05/03 02:16:10;;;;;;;27.10;24.50;;;;;;;10.34;97.54;98522.27;106523;1277;24367;-77
2023/05/03 02:18:38;;;;;;;29.20;26.40;;;;;;;10.30;97.67;98520.36;106568;1277;22535;-76
2023/05/03 02:21:09;;;;;;;27.10;24.60;;;;;;;10.26;97.80;98521.34;106635;1277;24346;-75
2023/05/03 02:23:37;;;;;;;24.50;22.30;;;;;;;10.22;97.80;98523.72;106590;1277;24375;-76
2023/05/03 02:26:05;;;;;;;27.90;25.40;;;;;;;10.22;97.99;98519.36;106622;1277;22531;-76
2023/05/03 02:28:34;;;;;;;26.70;24.20;;;;;;;10.23;97.91;98517.90;106487;1275;22540;-78
2023/05/03 02:31:04;;;;;;;26.40;23.90;;;;;;;10.25;98.05;98517.63;106735;1277;22566;-76
2023/05/03 02:33:33;;;;;;;26.40;23.80;;;;;;;10.26;98.10;98517.10;106853;1277;25350;-77
2023/05/03 02:36:01;;;;;;;29.00;26.30;;;;;;;10.23;98.06;98518.66;106794;1277;22528;-76
2023/05/03 02:38:29;;;;;;;30.80;27.70;;;;;;;10.19;98.44;98518.41;106726;1277;22540;-77
2023/05/03 02:40:58;;;;;;;30.50;27.70;;;;;;;10.14;98.73;98515.70;106728;1277;24073;-77
2023/05/03 02:43:26;;;;;;;27.80;25.10;;;;;;;10.12;98.94;98518.52;106627;1277;22531;-77
2023/05/03 02:45:54;;;;;;;27.60;24.80;;;;;;;10.10;99.05;98518.48;106598;1277;22521;-77
2023/05/03 02:48:23;;;;;;;29.10;26.20;;;;;;;10.08;98.78;98519.56;106554;1277;22540;-77
2023/05/03 02:50:51;;;;;;;29.00;26.20;;;;;;;10.09;98.98;98520.70;106499;1278;25536;-77
2023/05/03 02:53:19;;;;;;;28.20;25.70;;;;;;;10.10;99.14;98519.35;106598;1277;24089;-76
2023/05/03 02:55:48;;;;;;;27.80;25.20;;;;;;;10.11;99.02;98521.17;106648;1277;22537;-78
2023/05/03 02:58:16;;;;;;;28.90;26.00;;;;;;;10.12;99.29;98523.55;106514;1277;22523;-76
2023/05/03 03:00:45;;;;;;;29.20;26.50;;;;;;;10.14;99.63;98526.05;106789;1277;25488;-76
2023/05/03 03:03:13;;;;;;;32.10;29.10;;;;;;;10.14;99.95;98524.33;106609;1275;23031;-77
2023/05/03 03:05:42;;;;;;;33.70;30.50;;;;;;;10.11;100.00;98523.06;106780;1277;24215;-76
2023/05/03 03:08:09;;;;;;;31.60;28.70;;;;;;;10.06;100.00;98526.36;106544;1277;22526;-76
2023/05/03 03:10:38;;;;;;;31.80;28.70;;;;;;;10.06;99.94;98527.61;106712;1277;25297;-76
2023/05/03 03:13:06;;;;;;;32.00;28.90;;;;;;;10.08;99.90;98531.09;106748;1277;25322;-77
2023/05/03 03:15:34;;;;;;;31.70;28.80;;;;;;;10.13;99.74;98530.91;106691;1277;22535;-76
2023/05/03 03:18:03;;;;;;;29.30;26.50;;;;;;;10.14;99.67;98526.31;106617;1277;22531;-76
2023/05/03 03:20:31;;;;;;;29.70;26.80;;;;;;;10.19;99.79;98529.34;106699;1277;22525;-76
2023/05/03 03:22:59;;;;;;;30.60;27.90;;;;;;;10.23;99.86;98532.77;106756;1277;22632;-77
2023/05/03 03:25:27;;;;;;;33.00;29.90;;;;;;;10.25;99.82;98535.18;106649;1277;22653;-76
2023/05/03 03:27:55;;;;;;;33.30;30.30;;;;;;;10.24;99.79;98534.98;106724;1277;22576;-77
2023/05/03 03:30:25;;;;;;;33.10;30.20;;;;;;;10.22;99.65;98531.76;106851;1278;25227;-76
2023/05/03 03:33:01;;;;;;;31.40;28.50;;;;;;;10.21;99.70;98530.95;106670;1277;22668;-76
2023/05/03 03:35:33;;;;;;;31.50;28.30;;;;;;;10.21;99.96;98530.91;106845;1277;22904;-76
2023/05/03 03:38:02;;;;;;;32.00;28.90;;;;;;;10.23;100.00;98536.65;106554;1277;22545;-76
2023/05/03 03:40:30;;;;;;;30.60;27.90;;;;;;;10.24;100.00;98537.30;106593;1277;24384;-77
2023/05/03 03:42:58;;;;;;;30.60;27.70;;;;;;;10.27;100.00;98539.28;106707;1277;22570;-77
2023/05/03 03:45:26;;;;;;;30.70;27.80;;;;;;;10.30;99.84;98540.19;106725;1277;22583;-77
2023/05/03 03:47:56;;;;;;;30.40;27.80;;;;;;;10.32;99.89;98540.48;106704;1277;24263;-77
2023/05/03 03:50:25;;;;;;;33.40;30.40;;;;;;;10.33;100.00;98542.38;106820;1277;22560;-77
2023/05/03 03:52:53;;;;;;;33.10;29.90;;;;;;;10.31;100.00;98544.33;106949;1262;24308;-77
2023/05/03 03:55:22;;;;;;;33.60;30.30;;;;;;;10.29;100.00;98545.95;106782;1277;24242;-76
2023/05/03 03:57:51;;;;;;;32.90;29.70;;;;;;;10.30;100.00;98543.80;106773;1277;22528;-77
2023/05/03 04:00:20;;;;;;;32.60;29.60;;;;;;;10.32;100.00;98545.50;106840;1278;22570;-77
2023/05/03 04:02:50;;;;;;;33.60;30.50;;;;;;;10.37;100.00;98547.14;106897;1277;22528;-76
2023/05/03 04:05:19;;;;;;;32.90;30.00;;;;;;;10.41;100.00;98550.65;106499;1277;22560;-76
2023/05/03 04:07:48;;;;;;;35.10;31.80;;;;;;;10.45;99.91;98553.53;106608;1277;22633;-76
2023/05/03 04:10:17;;;;;;;36.20;32.90;;;;;;;10.48;99.89;98553.69;106532;1277;22941;-76
2023/05/03 04:12:45;;;;;;;38.20;34.60;;;;;;;10.45;99.98;98554.08;106675;1277;22560;-77
2023/05/03 04:15:14;;;;;;;38.10;34.80;;;;;;;10.42;99.97;98554.42;106698;1277;24193;-76
2023/05/03 04:17:42;;;;;;;37.50;34.30;;;;;;;10.40;99.97;98556.80;106566;1277;22525;-75
2023/05/03 04:20:12;;;;;;;36.20;32.80;;;;;;;10.39;99.98;98556.89;106443;1277;24086;-75
2023/05/03 04:22:43;;;;;;;37.50;34.10;;;;;;;10.38;99.97;98560.65;106597;1277;24403;-76
2023/05/03 04:25:13;;;;;;;35.90;32.60;;;;;;;10.40;99.98;98562.42;106634;1277;25217;-75
2023/05/03 04:27:43;;;;;;;36.20;32.90;;;;;;;10.43;99.92;98565.34;106540;1277;22533;-76
2023/05/03 04:30:13;;;;;;;39.10;35.50;;;;;;;10.42;100.00;98566.96;106869;1277;22642;-76
2023/05/03 04:32:42;;;;;;;38.90;35.40;;;;;;;10.36;100.00;98567.94;106627;1277;22552;-76
2023/05/03 04:35:11;;;;;;;38.60;35.20;;;;;;;10.35;100.00;98571.61;106454;1277;22629;-75
2023/05/03 04:37:43;;;;;;;43.50;39.40;;;;;;;10.36;100.00;98573.92;106548;1277;22533;-76
2023/05/03 04:40:13;;;;;;;38.20;34.80;;;;;;;10.38;100.00;98575.90;106427;1277;22790;-75
2023/05/03 04:42:43;;;;;;;38.70;35.30;;;;;;;10.39;100.00;98575.62;106515;1277;22587;-75
2023/05/03 04:45:13;;;;;;;37.00;33.70;;;;;;;10.43;100.00;98577.09;106661;1277;23033;-75
2023/05/03 04:47:41;;;;;;;37.50;34.10;;;;;;;10.44;100.00;98575.95;106624;1277;22934;-76
2023/05/03 04:50:10;;;;;;;50.20;46.10;;;;;;;10.45;100.00;98581.55;106509;1277;22528;-75
2023/05/03 04:52:40;;;;;;;38.90;35.50;;;;;;;10.44;100.00;98581.30;106505;1277;23096;-75
2023/05/03 04:55:09;;;;;;;39.00;35.70;;;;;;;10.38;100.00;98582.63;106713;1277;22780;-75
2023/05/03 04:57:37;;;;;;;34.90;31.80;;;;;;;10.35;100.00;98582.48;106659;1277;23313;-75
2023/05/03 05:00:10;;;;;;;36.40;33.30;;;;;;;10.28;100.00;98582.48;106634;1277;22797;-75
2023/05/03 05:02:42;;;;;;;35.20;32.10;;;;;;;10.26;100.00;98585.32;106659;1277;22570;-75
2023/05/03 05:05:11;;;;;;;32.90;30.10;;;;;;;10.22;100.00;98588.59;106696;1277;22787;-75
2023/05/03 05:07:39;;;;;;;30.60;27.80;;;;;;;10.19;100.00;98589.20;106630;1276;24220;-75
2023/05/03 05:10:09;;;;;;;31.10;28.50;;;;;;;10.19;100.00;98588.81;106584;1277;24318;-75
2023/05/03 05:12:37;;;;;;;31.10;28.40;;;;;;;10.21;100.00;98589.17;106390;1277;22644;-75
2023/05/03 05:15:06;;;;;;;28.90;26.30;;;;;;;10.24;100.00;98592.23;106846;1277;22640;-79
2023/05/03 05:17:34;;;;;;;28.00;25.30;;;;;;;10.23;100.00;98594.29;106636;1277;22642;-75
2023/05/03 05:20:06;;;;;;;26.60;24.20;;;;;;;10.27;100.00;98595.20;106613;1277;22535;-74
2023/05/03 05:22:34;;;;;;;24.40;22.20;;;;;;;10.30;100.00;98597.23;106401;1277;22520;-73
2023/05/03 05:25:03;;;;;;;22.60;20.50;;;;;;;10.32;100.00;98599.81;106702;1277;24245;-72
2023/05/03 05:27:31;;;;;;;20.20;18.30;;;;;;;10.49;100.00;98597.70;107063;1277;22555;-73
2023/05/03 05:30:00;;;;;;;22.20;20.20;;;;;;;10.73;100.00;98601.71;106677;1277;23095;-74
2023/05/03 05:32:30;;;;;;;19.60;17.80;;;;;;;10.89;100.00;98603.36;106857;1277;25271;-74
2023/05/03 05:34:58;;;;;;;18.60;16.80;;;;;;;11.02;100.00;98605.46;106533;1277;24382;-75
2023/05/03 05:37:34;;;;;;;17.80;16.20;;;;;;;11.03;100.00;98607.65;106645;1277;25326;-74
2023/05/03 05:40:03;;;;;;;15.60;14.20;;;;;;;11.02;100.00;98607.98;106740;1278;22636;-74
2023/05/03 05:42:36;;;;;;;16.20;14.80;;;;;;;10.98;100.00;98609.53;106587;1277;24321;-74
2023/05/03 05:45:06;;;;;;;14.70;13.30;;;;;;;10.98;100.00;98610.51;106447;1277;24228;-75
2023/05/03 05:47:36;;;;;;;12.70;11.50;;;;;;;10.96;100.00;98610.05;106570;1277;22530;-74
2023/05/03 05:50:05;;;;;;;14.60;13.20;;;;;;;10.97;100.00;98616.40;106390;1277;184076;-75
2023/05/03 05:52:45;;;;;;;14.20;12.90;;;;;;;10.98;100.00;98616.43;106539;1277;22527;-76
2023/05/03 05:55:14;;;;;;;13.30;12.00;;;;;;;10.97;100.00;98622.70;106494;1277;22518;-75
2023/05/03 05:57:44;;;;;;;11.70;10.60;;;;;;;10.94;100.00;98624.02;106676;1277;22524;-77
2023/05/03 06:00:17;;;;;;;12.40;11.30;;;;;;;10.92;100.00;98629.98;106580;1277;23931;-77
2023/05/03 06:02:46;;;;;;;12.90;11.70;;;;;;;10.89;100.00;98632.36;106533;1277;24321;-77
2023/05/03 06:05:19;;;;;;;10.10;9.10;;;;;;;10.89;100.00;98634.95;106525;1277;25458;-78
2023/05/03 06:07:49;;;;;;;10.50;9.50;;;;;;;10.88;100.00;98636.15;106586;1277;22526;-77
2023/05/03 06:10:17;;;;;;;16.20;14.80;;;;;;;10.88;100.00;98641.38;106773;1277;22584;-76
2023/05/03 06:12:49;;;;;;;9.00;8.10;;;;;;;10.87;100.00;98645.59;106555;1278;22780;-76
2023/05/03 06:15:22;;;;;;;10.50;9.50;;;;;;;10.90;100.00;98651.55;106557;1277;22585;-76
2023/05/03 06:17:50;;;;;;;10.00;8.40;;;;;;;10.96;100.00;98654.73;106440;1277;22524;-79
2023/05/03 06:20:18;;;;;;;10.20;8.00;;;;;;;10.96;100.00;98657.66;106718;1278;23024;-77
2023/05/03 06:22:48;;;;;;;9.50;8.50;;;;;;;10.96;100.00;98660.58;106746;1277;25230;-76
2023/05/03 06:25:16;;;;;;;10.70;8.30;;;;;;;10.92;100.00;98661.03;106696;1277;22524;-80
2023/05/03 06:27:49;;;;;;;9.30;8.30;;;;;;;10.93;100.00;98662.38;106645;1277;22787;-78
2023/05/03 06:30:22;;;;;;;12.70;9.70;;;;;;;10.95;100.00;98664.84;106690;1277;22790;-77
2023/05/03 06:32:51;;;;;;;14.10;12.80;;;;;;;10.98;100.00;98667.35;106887;1277;24371;-79
2023/05/03 06:35:20;;;;;;;12.50;11.30;;;;;;;11.03;100.00;98670.06;106607;1277;25390;-76
2023/05/03 06:37:49;;;;;;;20.90;19.20;;;;;;;11.10;100.00;98674.42;106708;1277;23000;-79
2023/05/03 06:40:17;;;;;;;9.50;8.60;;;;;;;11.13;99.94;98673.85;107017;1277;22605;-76
2023/05/03 06:42:45;;;;;;;10.90;9.70;;;;;;;11.10;99.87;98671.06;107004;1277;22721;-76
2023/05/03 06:45:19;;;;;;;10.60;9.40;;;;;;;11.05;99.30;98672.68;106853;1277;22761;-75
2023/05/03 06:47:49;;;;;;;17.00;15.40;;;;;;;10.97;99.04;98672.85;106656;1277;22656;-75
2023/05/03 06:50:18;;;;;;;12.80;10.90;;;;;;;10.93;98.96;98672.95;106768;1277;24436;-76
2023/05/03 06:52:47;;;;;;;17.50;15.80;;;;;;;10.89;99.22;98674.70;106736;1277;22533;-76
2023/05/03 06:55:16;;;;;;;13.20;11.90;;;;;;;10.81;99.15;98681.77;106918;1277;22585;-79
2023/05/03 06:57:47;;;;;;;16.80;14.90;;;;;;;10.76;99.05;98681.15;106854;1277;22528;-77
2023/05/03 07:00:15;;;;;;;15.20;12.80;;;;;;;10.75;99.23;98682.99;106781;1277;22537;-76
2023/05/03 07:02:43;;;;;;;14.60;12.30;;;;;;;10.76;99.17;98683.54;106766;1277;22644;-77
2023/05/03 07:05:11;;;;;;;14.50;12.50;;;;;;;10.74;99.26;98683.77;106719;1277;25593;-75
2023/05/03 07:07:39;;;;;;;13.70;12.10;;;;;;;10.66;99.10;98687.80;106709;1277;25274;-76
2023/05/03 07:10:07;;;;;;;14.10;12.70;;;;;;;10.63;99.32;98685.02;106675;1277;24375;-75
2023/05/03 07:12:36;;;;;;;13.20;11.80;;;;;;;10.68;99.37;98684.13;106602;1277;22518;-76
2023/05/03 07:15:04;;;;;;;12.20;10.60;;;;;;;10.74;99.29;98685.54;106691;1277;25238;-76
2023/05/03 07:17:32;;;;;;;11.70;10.60;;;;;;;10.80;99.38;98689.77;106594;1277;24423;-77
2023/05/03 07:20:00;;;;;;;12.90;11.60;;;;;;;10.79;99.28;98690.89;106654;1277;24275;-76
2023/05/03 07:22:28;;;;;;;12.50;11.20;;;;;;;10.76;99.59;98691.36;106618;1277;22647;-77
2023/05/03 07:24:58;;;;;;;20.00;18.20;;;;;;;10.70;99.54;98690.46;106848;1277;25340;-78
2023/05/03 07:27:27;;;;;;;13.30;11.90;;;;;;;10.74;99.71;98691.20;106984;1277;22672;-77
2023/05/03 07:29:55;;;;;;;13.80;12.40;;;;;;;10.78;99.60;98694.63;106794;1277;24244;-77
2023/05/03 07:32:23;;;;;;;16.00;14.40;;;;;;;10.83;99.95;98697.55;106675;1277;24199;-77
2023/05/03 07:34:52;;;;;;;13.30;12.10;;;;;;;10.81;99.92;98699.55;106895;1277;22607;-77
2023/05/03 07:37:20;;;;;;;15.60;14.10;;;;;;;10.79;99.99;98696.27;106750;1277;25297;-77
2023/05/03 07:39:48;;;;;;;13.70;12.40;;;;;;;10.78;99.97;98693.64;106724;1277;22595;-77
2023/05/03 07:42:16;;;;;;;13.50;12.30;;;;;;;10.73;100.00;98696.32;106816;1277;22577;-77
2023/05/03 07:44:44;;;;;;;15.20;13.90;;;;;;;10.73;100.00;98698.11;106841;1277;22633;-79
2023/05/03 07:47:12;;;;;;;13.80;12.40;;;;;;;10.77;100.00;98699.75;106723;1277;22793;-76
2023/05/03 07:49:40;;;;;;;15.10;13.80;;;;;;;10.75;100.00;98698.73;106805;1277;24187;-77
2023/05/03 07:52:08;;;;;;;15.40;12.80;;;;;;;10.70;100.00;98699.95;106907;1277;24085;-77
2023/05/03 07:54:36;;;;;;;14.50;13.10;;;;;;;10.72;100.00;98705.34;106737;1277;22525;-77
2023/05/03 07:57:05;;;;;;;12.60;11.40;;;;;;;10.78;100.00;98705.18;106974;1277;25465;-77
2023/05/03 07:59:33;;;;;;;12.30;11.20;;;;;;;10.80;100.00;98706.52;106896;1277;23146;-77
2023/05/03 08:02:00;;;;;;;14.10;12.60;;;;;;;10.82;100.00;98706.23;106914;1277;22696;-79
2023/05/03 08:04:29;;;;;;;13.70;12.20;;;;;;;10.83;100.00;98705.43;106875;1277;22527;-77
2023/05/03 08:07:01;;;;;;;12.60;11.20;;;;;;;10.81;100.00;98706.52;106716;1277;22679;-76
2023/05/03 08:09:29;;;;;;;14.60;10.80;;;;;;;10.80;99.98;98710.14;106606;1277;25386;-76
2023/05/03 08:11:57;;;;;;;13.90;11.30;;;;;;;10.85;100.00;98706.76;106820;1277;25504;-77
2023/05/03 08:14:26;;;;;;;15.10;13.30;;;;;;;10.89;100.00;98709.54;106696;1277;22529;-77
2023/05/03 08:16:54;;;;;;;12.50;11.30;;;;;;;10.94;99.99;98707.39;106655;1277;25593;-76
2023/05/03 08:19:22;;;;;;;14.30;12.90;;;;;;;11.01;99.97;98712.58;106705;1277;24414;-78
2023/05/03 08:21:51;;;;;;;13.70;10.50;;;;;;;11.07;99.81;98712.00;106780;1277;24215;-78
2023/05/03 08:24:19;;;;;;;12.30;10.70;;;;;;;11.07;99.41;98716.90;106786;1277;26612;-76
2023/05/03 08:26:48;;;;;;;12.80;11.40;;;;;;;11.07;98.85;98716.25;106823;1277;22538;-79
2023/05/03 08:29:16;;;;;;;13.00;11.20;;;;;;;11.03;98.17;98719.14;106729;1277;22788;-78
2023/05/03 08:31:43;;;;;;;12.30;9.60;;;;;;;10.98;97.83;98723.92;106689;1277;25403;-76
2023/05/03 08:34:12;;;;;;;12.50;9.00;;;;;;;10.95;97.70;98724.38;106610;1277;25328;-77
2023/05/03 08:36:40;;;;;;;12.90;10.10;;;;;;;10.91;97.27;98727.16;106679;1277;23255;-77
2023/05/03 08:39:09;;;;;;;12.40;11.10;;;;;;;10.93;97.59;98729.57;106710;1277;23945;-76
2023/05/03 08:41:38;;;;;;;12.50;9.70;;;;;;;11.01;97.13;98731.77;106666;1277;26723;-77
2023/05/03 08:44:10;;;;;;;14.60;9.60;;;;;;;11.00;96.05;98733.77;106543;1277;22532;-76
2023/05/03 08:46:38;;;;;;;14.10;10.00;;;;;;;10.96;95.79;98734.61;106830;1277;23136;-77
2023/05/03 08:49:06;;;;;;;12.40;8.70;;;;;;;11.01;95.86;98734.52;106738;1277;22531;-76
2023/05/03 08:51:39;;;;;;;12.70;8.90;;;;;;;11.05;95.79;98728.83;106873;1277;24384;-77
2023/05/03 08:54:07;;;;;;;12.20;10.50;;;;;;;11.19;96.06;98726.35;106770;1277;23160;-76
2023/05/03 08:56:40;;;;;;;19.20;12.60;;;;;;;11.31;96.46;98728.89;106554;1277;25348;-76
2023/05/03 08:59:11;;;;;;;12.10;8.70;;;;;;;11.46;95.90;98731.09;106579;1277;24193;-78
2023/05/03 09:01:41;;;;;;;13.30;8.10;;;;;;;11.60;94.60;98738.30;106811;1277;24266;-78
2023/05/03 09:04:10;;;;;;;11.90;7.30;;;;;;;11.77;95.19;98742.08;106608;1277;25048;-78
2023/05/03 09:06:39;;;;;;;11.40;9.30;;;;;;;11.97;94.61;98744.48;106592;1277;25035;-78
2023/05/03 09:09:07;;;;;;;12.70;10.80;;;;;;;12.10;94.23;98738.76;106686;1277;22521;-78
2023/05/03 09:11:38;;;;;;;10.50;7.40;;;;;;;12.11;92.43;98742.92;106813;1277;22533;-78
2023/05/03 09:14:09;;;;;;;11.50;7.40;;;;;;;12.10;92.32;98742.35;106873;1277;23391;-79
2023/05/03 09:16:39;;;;;;;11.30;7.30;;;;;;;12.12;91.57;98744.38;106444;1277;25236;-78
2023/05/03 09:19:10;;;;;;;12.50;10.00;;;;;;;12.11;90.72;98743.20;106694;1277;22525;-78
2023/05/03 09:21:41;;;;;;;10.80;7.80;;;;;;;12.20;92.59;98740.40;107308;1277;22517;-78
2023/05/03 09:24:20;;;;;;;9.10;7.80;;;;;;;12.30;92.24;98739.35;106850;1277;24339;-78
2023/05/03 09:26:52;;;;;;;11.30;8.10;;;;;;;12.30;89.50;98745.63;106902;1277;23287;-77
2023/05/03 09:29:34;;;;;;;11.00;6.60;;;;;;;12.13;88.03;98743.88;106893;1277;25468;-76
2023/05/03 09:32:04;;;;;;;8.90;6.80;;;;;;;12.14;89.42;98744.89;106538;1277;25494;-77
2023/05/03 09:34:34;;;;;;;13.30;10.50;;;;;;;12.28;90.38;98749.77;106717;1277;25217;-78
2023/05/03 09:37:02;;;;;;;9.60;8.50;;;;;;;12.45;90.18;98750.67;106879;1277;24558;-78
2023/05/03 09:39:31;;;;;;;9.70;8.50;;;;;;;12.56;90.80;98752.00;106832;1277;23929;-82
2023/05/03 09:42:09;;;;;;;14.20;10.40;;;;;;;12.71;91.37;98748.70;106853;1277;24350;-77
2023/05/03 09:44:44;;;;;;;14.00;12.40;;;;;;;12.91;91.32;98749.67;106680;1277;24350;-77
2023/05/03 09:47:12;;;;;;;14.70;10.20;;;;;;;13.10;91.45;98744.58;106686;1277;22635;-76
2023/05/03 09:49:40;;;;;;;12.60;9.60;;;;;;;13.38;91.38;98745.13;106727;1277;22570;-78
2023/05/03 09:52:08;;;;;;;12.80;8.60;;;;;;;13.52;90.95;98743.98;106599;1277;25389;-77
2023/05/03 09:54:37;;;;;;;11.00;7.30;;;;;;;13.55;89.84;98748.30;106743;1277;24196;-76
2023/05/03 09:57:06;;;;;;;11.90;7.90;;;;;;;13.48;88.21;98746.31;106446;1277;24370;-78
2023/05/03 09:59:36;;;;;;;12.30;7.80;;;;;;;13.48;87.52;98749.73;106746;1277;22551;-78
2023/05/03 10:02:07;;;;;;;10.80;7.80;;;;;;;13.45;87.01;98753.52;106785;1277;23925;-77
2023/05/03 10:04:43;;;;;;;8.60;6.60;;;;;;;13.40;85.39;98754.41;106798;1277;25398;-77
2023/05/03 10:07:20;;;;;;;10.70;7.20;;;;;;;13.25;84.88;98755.13;106732;1277;25652;-77
2023/05/03 10:09:48;;;;;;;10.30;7.20;;;;;;;13.14;85.25;98754.25;106827;1277;25995;-77
2023/05/03 10:12:18;;;;;;;11.20;8.30;;;;;;;13.12;85.07;98752.38;107406;1277;25325;-77
2023/05/03 10:14:50;;;;;;;11.40;6.80;;;;;;;13.15;85.24;98754.13;107318;1277;25400;-78
2023/05/03 10:17:22;;;;;;;10.00;6.80;;;;;;;12.90;81.88;98753.90;107255;1277;22630;-77
2023/05/03 10:20:38;;;;;;;10.50;6.50;;;;;;;12.68;80.45;98759.09;106680;1277;22581;-77
2023/05/03 10:23:09;;;;;;;11.60;6.80;;;;;;;12.47;81.01;98759.64;106524;1277;25317;-77
2023/05/03 10:25:38;;;;;;;11.80;7.90;;;;;;;12.30;81.29;98759.56;106680;1277;25343;-77
2023/05/03 10:28:08;;;;;;;12.00;7.40;;;;;;;12.23;80.81;98758.08;106776;1277;22758;-76
2023/05/03 10:30:38;;;;;;;14.50;11.10;;;;;;;12.19;82.02;98757.09;106763;1277;22732;-76
2023/05/03 10:33:12;;;;;;;13.20;8.30;;;;;;;12.36;82.37;98755.44;106829;1277;22524;-76
2023/05/03 10:35:47;;;;;;;12.40;7.70;;;;;;;12.34;80.08;98761.02;106777;1277;24351;-77
2023/05/03 10:38:20;;;;;;;12.60;9.40;;;;;;;12.01;80.01;98763.62;106749;1277;22623;-77
2023/05/03 10:40:49;;;;;;;12.10;10.80;;;;;;;11.73;80.62;98757.77;106727;1277;25503;-77
2023/05/03 10:43:32;;;;;;;14.50;10.50;;;;;;;11.60;81.92;98754.72;106714;1277;25313;-77
2023/05/03 10:46:04;;;;;;;13.30;10.30;;;;;;;11.70;82.21;98754.45;106829;1277;24435;-77
2023/05/03 10:48:34;;;;;;;12.50;10.50;;;;;;;11.82;82.01;98758.01;106810;1277;22567;-76
2023/05/03 10:51:35;;;;;;;12.70;11.40;;;;;;;11.66;82.08;98757.02;106614;1277;25391;-77
2023/05/03 10:54:04;;;;;;;14.70;11.50;;;;;;;11.49;82.46;98755.84;106837;1277;22530;-77
2023/05/03 10:56:32;;;;;;;13.30;9.60;;;;;;;11.37;82.92;98759.22;106556;1277;22686;-75
2023/05/03 10:59:00;;;;;;;13.00;9.40;;;;;;;11.28;83.21;98759.20;106633;1277;24324;-76
2023/05/03 11:01:28;;;;;;;11.30;9.50;;;;;;;11.23;83.41;98759.98;106704;1277;25333;-77
2023/05/03 11:04:11;;;;;;;15.60;11.90;;;;;;;11.19;83.33;98760.84;106778;1277;25406;-77
2023/05/03 11:06:40;;;;;;;14.10;10.60;;;;;;;11.14;83.69;98757.15;106695;1277;23899;-78
2023/05/03 11:09:10;;;;;;;16.00;9.60;;;;;;;11.15;83.96;98757.45;106800;1277;22545;-77
2023/05/03 11:11:40;;;;;;;12.70;11.20;;;;;;;11.15;84.25;98752.33;106728;1277;22524;-76
2023/05/03 11:14:10;;;;;;;13.00;11.60;;;;;;;11.15;84.08;98752.77;106859;1277;25274;-78
2023/05/03 11:16:46;;;;;;;13.20;11.00;;;;;;;11.15;83.92;98754.11;106780;1277;25298;-79
2023/05/03 11:19:15;;;;;;;15.50;12.00;;;;;;;11.13;84.07;98755.05;106863;1277;22814;-79
2023/05/03 11:21:44;;;;;;;17.40;11.90;;;;;;;11.14;84.28;98752.61;106912;1277;22569;-79
2023/05/03 11:24:14;;;;;;;14.50;10.40;;;;;;;11.14;84.36;98753.91;106702;1277;22981;-78